Snow/Ice From: 17-12-2017 10:00 Until: 18-12-2017 06:00 warning for: Snow/Ice Level: Yellow info button

Although rather usual in this region, locally or potentially dangerous phenomena are expected. (such as local winds, summer thunderstorms, rising streams or high waves) Be aware and pay attention to the latest weather updates, especially if you carry out activities exposed to weather or close to a stream or shoreline. 


Meteo18 Weather Cam more information Meteo18 Weather Cam


Thunder radar more information blitzortung!


warning for Snow/Ice more information rain snow radar


Visit our other weather sites:

Template documentation
and downloads

And another site



Weather Underground History page Text

Daily Summary for March 24, 2017 Units:  English    Metric   Both
« Previous Day
Next Day »
Daily Weekly Monthly Yearly Custom
  High: Low: Average:
Temperature: 54 °F 38.5 °F 46.4 °F
Dew Point: 48.2 °F 37.2 °F 43.5 °F
Humidity: 97 % 78 % 90 %
Wind Speed: 16 mph 0 mph 4.6 mph
Wind Gust: 19 mph - -
Wind:- - ENE
Pressure: 30.2 in 30.1 in -
Precipitation: 0.06 in    
Historical Graphs
 
 
Tabular Data for March 24, 2017
Time Temperature Dew Point Pressure Wind Wind Speed Wind Gust Humidity Rainfall Rate (Hourly)
00:02 41.2 °F 39.6 °F 30.1 in Calm   2 mph 94 % 0 in
00:07 41.4 °F 39.7 °F 30.1 in NE 1 mph 1 mph 94 % 0 in
00:12 41.4 °F 39.7 °F 30.1 in ENE 1 mph 1 mph 94 % 0 in
00:17 41.4 °F 39.7 °F 30.1 in ENE 1 mph 2 mph 94 % 0 in
00:22 41.2 °F 39.4 °F 30.1 in Calm   2 mph 93 % 0 in
00:32 40.5 °F 38.8 °F 30.1 in Calm   2 mph 94 % 0 in
00:37 40.1 °F 38.3 °F 30.1 in Calm   2 mph 93 % 0 in
00:42 39.7 °F 38.1 °F 30.1 in Calm   1 mph 94 % 0 in
00:52 39.9 °F 38.7 °F 30.1 in ENE 1 mph 1 mph 95 % 0 in
00:57 40.1 °F 38.8 °F 30.1 in Calm   1 mph 95 % 0 in
01:02 39.9 °F 38.7 °F 30.1 in Calm   1 mph 95 % 0 in
01:12 39.7 °F 38.5 °F 30.1 in Calm   1 mph 95 % 0 in
01:17 39.4 °F 38.1 °F 30.1 in Calm   1 mph 95 % 0 in
01:22 39.4 °F 38.1 °F 30.1 in North 1 mph 1 mph 95 % 0 in
01:27 39.4 °F 38.1 °F 30.1 in North 1 mph 1 mph 95 % 0 in
01:32 38.8 °F 37.6 °F 30.1 in North 1 mph 1 mph 95 % 0 in
01:42 38.5 °F 37.2 °F 30.1 in NNW 1 mph 2 mph 95 % 0 in
01:47 38.5 °F 37.2 °F 30.1 in Calm   2 mph 95 % 0 in
01:52 38.5 °F 37.4 °F 30.1 in North 1 mph 2 mph 96 % 0 in
01:57 38.5 °F 37.4 °F 30.1 in Calm   2 mph 96 % 0 in
02:02 38.7 °F 37.6 °F 30.1 in NNE 2 mph 2 mph 96 % 0 in
02:12 39 °F 37.9 °F 30.1 in Calm   3 mph 96 % 0 in
02:17 39 °F 37.9 °F 30.1 in Calm   3 mph 96 % 0 in
02:22 38.7 °F 37.6 °F 30.1 in Calm   3 mph 96 % 0 in
02:27 38.8 °F 37.8 °F 30.1 in Calm     96 % 0 in
02:32 39.2 °F 38.1 °F 30.1 in Calm     96 % 0 in
02:42 38.8 °F 37.8 °F 30.1 in Calm     96 % 0 in
02:47 38.8 °F 37.8 °F 30.1 in Calm   1 mph 96 % 0 in
02:52 38.7 °F 37.6 °F 30.1 in Calm   1 mph 96 % 0 in
02:57 39 °F 37.9 °F 30.1 in NNE 2 mph 2 mph 96 % 0 in
03:02 38.8 °F 37.8 °F 30.1 in North 1 mph 2 mph 96 % 0 in
03:12 38.8 °F 37.8 °F 30.1 in Calm   4 mph 96 % 0 in
03:17 38.8 °F 37.8 °F 30.1 in Calm   2 mph 96 % 0 in
03:22 39 °F 38.3 °F 30.1 in Calm   2 mph 97 % 0 in
03:32 39 °F 38.3 °F 30.1 in Calm     97 % 0 in
03:42 38.8 °F 38.1 °F 30.1 in Calm     97 % 0 in
03:47 38.7 °F 37.6 °F 30.1 in Calm     96 % 0 in
03:52 38.7 °F 37.6 °F 30.1 in Calm     96 % 0 in
04:02 38.7 °F 37.9 °F 30.1 in North 1 mph   97 % 0 in
04:07 38.8 °F 38.1 °F 30.1 in North 1 mph 2 mph 97 % 0 in
04:12 38.8 °F 38.1 °F 30.1 in Calm   2 mph 97 % 0 in
04:17 38.8 °F 38.1 °F 30.1 in Calm   2 mph 97 % 0 in
04:22 39 °F 38.3 °F 30.1 in Calm   2 mph 97 % 0 in
04:27 39.2 °F 38.5 °F 30.1 in NNW 2 mph 2 mph 97 % 0 in
04:32 39.4 °F 38.7 °F 30.1 in NNW 1 mph 1 mph 97 % 0 in
04:37 39.4 °F 38.7 °F 30.1 in NNW 1 mph 5 mph 97 % 0 in
04:42 39.4 °F 38.7 °F 30.1 in NW 1 mph 5 mph 97 % 0 in
04:47 39.6 °F 38.8 °F 30.1 in NNW 2 mph 5 mph 97 % 0 in
04:52 39.6 °F 38.8 °F 30.1 in Calm   5 mph 97 % 0 in
04:57 39.7 °F 39 °F 30.1 in NNE 2 mph 3 mph 97 % 0 in
05:02 39.7 °F 39 °F 30.1 in North 1 mph 3 mph 97 % 0 in
05:12 39.9 °F 38.8 °F 30.1 in Calm   3 mph 96 % 0 in
05:17 39.9 °F 38.8 °F 30.1 in Calm   2 mph 96 % 0 in
05:22 39.9 °F 38.8 °F 30.1 in Calm   2 mph 96 % 0 in
05:32 39.7 °F 38.7 °F 30.1 in Calm   1 mph 96 % 0 in
05:37 39.7 °F 38.7 °F 30.1 in NW 1 mph 1 mph 96 % 0 in
05:42 39.9 °F 39.2 °F 30.1 in WNW 1 mph 1 mph 97 % 0 in
05:47 39.9 °F 39.2 °F 30.1 in Calm   2 mph 97 % 0 in
05:52 39.9 °F 38.8 °F 30.1 in Calm   2 mph 96 % 0 in
05:57 39.9 °F 38.8 °F 30.1 in Calm   2 mph 96 % 0 in
06:02 39.9 °F 38.8 °F 30.1 in Calm   2 mph 96 % 0 in
06:12 40.3 °F 39.6 °F 30.1 in NNW 1 mph 1 mph 97 % 0 in
06:17 40.3 °F 39.2 °F 30.1 in Calm   2 mph 96 % 0.01 in
06:22 40.3 °F 39.2 °F 30.1 in NNW 2 mph 2 mph 96 % 0.01 in
06:27 40.3 °F 39.2 °F 30.1 in Calm   3 mph 96 % 0.01 in
06:32 40.5 °F 39.4 °F 30.1 in Calm   3 mph 96 % 0.01 in
06:37 40.5 °F 39.4 °F 30.1 in North 1 mph 2 mph 96 % 0.01 in
06:42 40.6 °F 39.6 °F 30.1 in NNE 1 mph 2 mph 96 % 0.01 in
06:52 40.8 °F 39.7 °F 30.1 in Calm   3 mph 96 % 0.01 in
06:57 40.6 °F 39.6 °F 30.1 in Calm   3 mph 96 % 0.01 in
07:02 40.6 °F 39.6 °F 30.1 in Calm   1 mph 96 % 0.02 in
07:12 40.6 °F 39.6 °F 30.1 in Calm   1 mph 96 % 0.02 in
07:17 40.8 °F 39.7 °F 30.1 in Calm   1 mph 96 % 0.02 in
07:22 40.8 °F 39.7 °F 30.1 in Calm   1 mph 96 % 0.02 in
07:32 41.2 °F 40.1 °F 30.1 in Calm     96 % 0.02 in
07:37 41.2 °F 40.1 °F 30.2 in Calm     96 % 0.02 in
07:42 41.4 °F 40.3 °F 30.2 in Calm     96 % 0.02 in
07:52 41.4 °F 40.3 °F 30.2 in Calm     96 % 0.02 in
08:02 41.5 °F 40.5 °F 30.2 in Calm   1 mph 96 % 0.02 in
08:07 41.7 °F 40.6 °F 30.2 in NE 1 mph 4 mph 96 % 0.01 in
08:17 42.1 °F 41 °F 30.2 in NE 3 mph 6 mph 96 % 0.01 in
08:22 42.1 °F 41 °F 30.2 in NNE 5 mph 6 mph 96 % 0.01 in
08:27 42.3 °F 41.2 °F 30.2 in NNE 4 mph 6 mph 96 % 0.01 in
08:32 42.4 °F 41.4 °F 30.2 in NNE 2 mph 6 mph 96 % 0.01 in
08:42 42.6 °F 41.5 °F 30.2 in NNE 5 mph 6 mph 96 % 0.01 in
08:47 43 °F 41.9 °F 30.2 in NNE 3 mph 8 mph 96 % 0 in
08:52 43 °F 41.9 °F 30.2 in North 2 mph 8 mph 96 % 0 in
09:02 43.2 °F 41.9 °F 30.2 in NE 3 mph 8 mph 95 % 0 in
09:07 43.3 °F 42.1 °F 30.2 in ESE 2 mph 9 mph 95 % 0 in
09:12 43.3 °F 42.1 °F 30.2 in NNE 6 mph 9 mph 95 % 0 in
09:17 43.3 °F 42.1 °F 30.2 in NE 6 mph 9 mph 95 % 0 in
09:22 43.3 °F 42.1 °F 30.2 in NE 4 mph 9 mph 95 % 0 in
09:32 43.5 °F 42.3 °F 30.2 in NNE 3 mph 9 mph 95 % 0 in
09:42 43.5 °F 42.3 °F 30.2 in Calm   9 mph 95 % 0 in
09:47 43.7 °F 42.4 °F 30.2 in NE 5 mph 9 mph 95 % 0 in
09:52 43.9 °F 42.6 °F 30.2 in North 4 mph 9 mph 95 % 0 in
10:02 43.9 °F 42.6 °F 30.2 in ENE 1 mph 6 mph 95 % 0 in
10:12 44.1 °F 42.8 °F 30.2 in NNE 3 mph 7 mph 95 % 0 in
10:22 44.2 °F 43 °F 30.2 in NNE 3 mph 6 mph 95 % 0 in
10:32 44.4 °F 43.3 °F 30.2 in NNE 2 mph 7 mph 96 % 0.02 in
10:37 44.4 °F 43.3 °F 30.2 in NNE 6 mph 10 mph 96 % 0.02 in
10:42 44.4 °F 43.3 °F 30.2 in NNE 3 mph 10 mph 96 % 0.02 in
10:47 44.8 °F 43.7 °F 30.2 in NNE 5 mph 10 mph 96 % 0.02 in
10:52 44.8 °F 43.7 °F 30.2 in NE 4 mph 10 mph 96 % 0.02 in
11:02 45 °F 43.9 °F 30.2 in NE 5 mph 9 mph 96 % 0.03 in
11:07 45.1 °F 44.1 °F 30.2 in NNE 9 mph 11 mph 96 % 0.03 in
11:17 45.5 °F 44.4 °F 30.2 in NNE 6 mph 10 mph 96 % 0.02 in
11:22 45.7 °F 44.6 °F 30.2 in NE 3 mph 10 mph 96 % 0.02 in
11:27 45.9 °F 44.8 °F 30.2 in NNE 16 mph 16 mph 96 % 0.02 in
11:37 46.2 °F 45.1 °F 30.2 in NNE 4 mph 16 mph 96 % 0.01 in
11:42 46.4 °F 45 °F 30.2 in NE 7 mph 16 mph 95 % 0.01 in
11:47 46.6 °F 45.1 °F 30.2 in NE 7 mph 12 mph 95 % 0.01 in
11:52 46.8 °F 45.3 °F 30.2 in NNE 8 mph 12 mph 95 % 0.01 in
12:02 47.1 °F 45.5 °F 30.2 in NE 6 mph 14 mph 94 % 0 in
12:12 48 °F 46.4 °F 30.2 in NNE 11 mph 15 mph 94 % 0 in
12:17 48.4 °F 46.4 °F 30.2 in ENE 8 mph 16 mph 93 % 0 in
12:22 48.9 °F 46.9 °F 30.2 in NE 9 mph 16 mph 93 % 0 in
12:32 49.6 °F 47.1 °F 30.2 in NE 5 mph 14 mph 91 % 0 in
12:37 49.8 °F 46.9 °F 30.2 in NNE 4 mph 16 mph 90 % 0 in
12:42 50.2 °F 47.1 °F 30.2 in ENE 8 mph 16 mph 89 % 0 in
12:47 50.2 °F 46.8 °F 30.2 in NE 6 mph 16 mph 88 % 0 in
12:52 50.5 °F 47.5 °F 30.2 in NNE 3 mph 16 mph 89 % 0 in
13:02 51.3 °F 47.5 °F 30.2 in NNE 9 mph 15 mph 87 % 0 in
13:12 51.1 °F 47.1 °F 30.2 in NE 12 mph 12 mph 86 % 0 in
13:17 51.1 °F 46.8 °F 30.2 in NNE 7 mph 15 mph 85 % 0 in
13:22 51.3 °F 46.9 °F 30.2 in NE 13 mph 15 mph 85 % 0 in
13:32 51.6 °F 46.9 °F 30.2 in NE 3 mph 18 mph 84 % 0 in
13:37 51.8 °F 46.4 °F 30.2 in NE 8 mph 18 mph 82 % 0 in
13:42 52.2 °F 47.1 °F 30.2 in NNE 8 mph 18 mph 83 % 0 in
13:47 52.3 °F 47.3 °F 30.2 in NE 8 mph 18 mph 83 % 0 in
13:52 52.5 °F 47.1 °F 30.2 in NE 6 mph 18 mph 82 % 0 in
13:57 52.7 °F 47.1 °F 30.2 in NE 12 mph 15 mph 81 % 0 in
14:02 52.9 °F 46.9 °F 30.2 in NE 6 mph 15 mph 80 % 0 in
14:12 53.1 °F 46.8 °F 30.2 in NNE 16 mph 16 mph 79 % 0 in
14:17 52.9 °F 46.6 °F 30.2 in North 5 mph 19 mph 79 % 0 in
14:22 52.9 °F 46.6 °F 30.2 in NNE 5 mph 19 mph 79 % 0 in
14:32 53.1 °F 47.3 °F 30.2 in NE 3 mph 19 mph 81 % 0 in
14:37 53.2 °F 47.3 °F 30.2 in NNE 7 mph 14 mph 80 % 0 in
14:42 53.4 °F 47.1 °F 30.2 in NE 8 mph 14 mph 79 % 0 in
14:47 53.4 °F 46.8 °F 30.2 in ENE 13 mph 14 mph 78 % 0 in
14:52 53.4 °F 46.8 °F 30.2 in North 7 mph 14 mph 78 % 0 in
14:57 53.6 °F 47.3 °F 30.2 in ESE 5 mph 15 mph 79 % 0 in
15:02 53.4 °F 46.8 °F 30.2 in NE 5 mph 15 mph 78 % 0 in
15:12 53.4 °F 47.5 °F 30.2 in NE 8 mph 16 mph 80 % 0 in
15:17 53.6 °F 47.3 °F 30.2 in NE 10 mph 16 mph 79 % 0 in
15:27 53.8 °F 47.1 °F 30.2 in NE 10 mph 15 mph 78 % 0 in
15:32 53.8 °F 47.5 °F 30.2 in NNE 13 mph 15 mph 79 % 0 in
15:37 53.8 °F 47.5 °F 30.2 in NNE 8 mph 17 mph 79 % 0 in
15:42 53.8 °F 47.8 °F 30.2 in NE 11 mph 17 mph 80 % 0 in
15:47 53.8 °F 47.8 °F 30.2 in NNE 10 mph 18 mph 80 % 0 in
15:52 54 °F 47.7 °F 30.2 in North 14 mph 18 mph 79 % 0 in
15:57 53.8 °F 47.8 °F 30.2 in East 10 mph 16 mph 80 % 0 in
16:02 53.6 °F 47.3 °F 30.2 in ENE 9 mph 16 mph 79 % 0 in
16:12 53.4 °F 47.5 °F 30.2 in NE 15 mph 16 mph 80 % 0 in
16:17 53.2 °F 47.3 °F 30.2 in NNE 10 mph 19 mph 80 % 0 in
16:22 53.2 °F 47.3 °F 30.2 in NNW 6 mph 19 mph 80 % 0 in
16:32 53.1 °F 47.3 °F 30.2 in NE 6 mph 19 mph 81 % 0 in
16:37 53.1 °F 47.3 °F 30.2 in NE 7 mph 19 mph 81 % 0 in
16:42 53.1 °F 47.3 °F 30.2 in NNE 12 mph 19 mph 81 % 0 in
16:52 52.9 °F 47.5 °F 30.2 in NNE 8 mph 18 mph 82 % 0 in
16:57 52.7 °F 47.3 °F 30.2 in ENE 12 mph 15 mph 82 % 0 in
17:02 52.7 °F 47.3 °F 30.2 in NNE 8 mph 15 mph 82 % 0 in
17:12 52.5 °F 47.5 °F 30.2 in ENE 8 mph 17 mph 83 % 0 in
17:17 52.5 °F 47.5 °F 30.2 in NNE 6 mph 15 mph 83 % 0 in
17:22 52.5 °F 47.5 °F 30.2 in ENE 2 mph 15 mph 83 % 0 in
17:27 52.5 °F 47.8 °F 30.2 in North 9 mph 15 mph 84 % 0 in
17:32 52.5 °F 47.8 °F 30.2 in NE 4 mph 15 mph 84 % 0 in
17:42 52.5 °F 47.8 °F 30.2 in North 8 mph 13 mph 84 % 0 in
17:52 52.7 °F 48 °F 30.2 in NNE 6 mph 11 mph 84 % 0 in
17:57 52.5 °F 47.8 °F 30.2 in NNE 6 mph 14 mph 84 % 0 in
18:02 52.5 °F 47.8 °F 30.2 in NNE 3 mph 14 mph 84 % 0 in
18:07 52.5 °F 47.8 °F 30.2 in NE 6 mph 12 mph 84 % 0 in
18:12 52.5 °F 48.2 °F 30.2 in North 3 mph 12 mph 85 % 0 in
18:17 52.3 °F 48 °F 30.2 in NE 6 mph 12 mph 85 % 0 in
18:22 52.3 °F 48 °F 30.2 in NNE 8 mph 11 mph 85 % 0 in
18:32 52.2 °F 48 °F 30.2 in NE 3 mph 9 mph 86 % 0 in
18:42 52.2 °F 48 °F 30.2 in NNE 5 mph 9 mph 86 % 0 in
18:47 52.2 °F 48 °F 30.2 in NE 2 mph 9 mph 86 % 0 in
18:52 52 °F 47.8 °F 30.2 in NE 5 mph 9 mph 86 % 0 in
18:57 52 °F 47.8 °F 30.2 in NE 5 mph 9 mph 86 % 0 in
19:02 52 °F 47.8 °F 30.2 in NNW 6 mph 9 mph 86 % 0 in
19:12 51.6 °F 47.5 °F 30.2 in NE 12 mph 12 mph 86 % 0 in
19:17 51.6 °F 47.5 °F 30.2 in NNW 4 mph 11 mph 86 % 0 in
19:22 51.6 °F 47.5 °F 30.2 in NE 10 mph 12 mph 86 % 0 in
19:32 51.4 °F 47.7 °F 30.2 in NE 8 mph 15 mph 87 % 0 in
19:37 51.3 °F 47.5 °F 30.2 in NNE 6 mph 17 mph 87 % 0 in
19:42 51.3 °F 47.5 °F 30.2 in ENE 6 mph 17 mph 87 % 0 in
19:47 51.1 °F 47.3 °F 30.2 in NNE 10 mph 16 mph 87 % 0 in
19:52 51.3 °F 47.5 °F 30.2 in NNE 6 mph 17 mph 87 % 0 in
19:57 51.3 °F 47.5 °F 30.2 in NE 8 mph 17 mph 87 % 0 in
20:07 51.4 °F 47.7 °F 30.2 in NNE 3 mph 18 mph 87 % 0 in
20:12 51.3 °F 47.5 °F 30.2 in NNE 5 mph 18 mph 87 % 0 in
20:17 51.3 °F 47.8 °F 30.2 in NNE 5 mph 15 mph 88 % 0 in
20:22 51.3 °F 47.8 °F 30.2 in NNE 7 mph 15 mph 88 % 0 in
20:27 51.1 °F 47.7 °F 30.2 in NNW 6 mph 11 mph 88 % 0 in
20:37 51.1 °F 47.7 °F 30.2 in NE 5 mph 11 mph 88 % 0 in
20:42 51.1 °F 47.7 °F 30.2 in NE 10 mph 11 mph 88 % 0 in
20:47 50.7 °F 47.3 °F 30.2 in NE 10 mph 15 mph 88 % 0 in
20:52 50.7 °F 47.3 °F 30.2 in NNE 3 mph 15 mph 88 % 0 in
20:57 50.7 °F 47.3 °F 30.2 in NE 10 mph 14 mph 88 % 0 in
21:02 50.5 °F 47.1 °F 30.2 in NE 9 mph 14 mph 88 % 0 in
21:12 50.7 °F 46.9 °F 30.2 in NNE 10 mph 14 mph 87 % 0 in
21:17 50.7 °F 46.9 °F 30.2 in NNE 12 mph 19 mph 87 % 0 in
21:22 50.5 °F 46.8 °F 30.2 in NNE 10 mph 19 mph 87 % 0 in
21:32 50.4 °F 46.9 °F 30.2 in NE 6 mph 15 mph 88 % 0 in
21:37 50.4 °F 46.9 °F 30.2 in NE 8 mph 13 mph 88 % 0 in
21:42 50.2 °F 46.8 °F 30.2 in NNE 5 mph 13 mph 88 % 0 in
21:47 50 °F 46.6 °F 30.2 in NNE 12 mph 13 mph 88 % 0 in
21:52 50 °F 46.6 °F 30.2 in NE 7 mph 13 mph 88 % 0 in
21:57 49.8 °F 46.4 °F 30.2 in NNE 10 mph 15 mph 88 % 0 in
22:02 49.8 °F 46.4 °F 30.2 in NNE 5 mph 15 mph 88 % 0 in
22:12 49.6 °F 46.2 °F 30.2 in North 7 mph 15 mph 88 % 0 in
22:17 49.5 °F 46 °F 30.2 in NNE 6 mph 13 mph 88 % 0 in
22:22 49.5 °F 46 °F 30.2 in NNE 9 mph 13 mph 88 % 0 in
22:32 49.3 °F 45.5 °F 30.2 in NNE 7 mph 14 mph 87 % 0 in
22:37 49.3 °F 45.9 °F 30.2 in NNE 10 mph 13 mph 88 % 0 in
22:42 49.3 °F 45.5 °F 30.2 in NE 7 mph 13 mph 87 % 0 in
22:47 49.3 °F 45.5 °F 30.2 in NE 8 mph 15 mph 87 % 0 in
22:52 49.1 °F 45.7 °F 30.2 in NNE 4 mph 15 mph 88 % 0 in
23:02 49.3 °F 45.9 °F 30.2 in NNE 10 mph 12 mph 88 % 0 in
23:12 49.3 °F 45.9 °F 30.2 in NE 8 mph 11 mph 88 % 0 in
23:17 49.3 °F 45.9 °F 30.2 in NE 9 mph 12 mph 88 % 0 in
23:22 49.3 °F 45.9 °F 30.2 in ENE 6 mph 12 mph 88 % 0 in
23:27 49.3 °F 45.9 °F 30.2 in North 2 mph 13 mph 88 % 0 in
23:32 49.5 °F 46 °F 30.2 in North 4 mph 13 mph 88 % 0 in
23:37 49.1 °F 45.7 °F 30.2 in North 6 mph 13 mph 88 % 0 in
23:42 49.1 °F 45.7 °F 30.2 in NNE 7 mph 13 mph 88 % 0 in
23:52 48.9 °F 45.5 °F 30.2 in NNW 4 mph 12 mph 88 % 0 in
23:57 48.7 °F 45.3 °F 30.2 in NNE 9 mph 12 mph 88 % 0 in
Meteo18
Compliments of Weather Underground - 4 mb

Script developed by  Jim McMurry - jmcmurry@mwt.net Adapted for the template by  Wim van der Kuil - Leuven-Template.eu

You find our weather info also at:

European Weather Network

Weather Underground

Equipment we use:

Weather-station
Davis Vue

Weather-program
Meteohub

Weather-server
Raspberry PI 2 B+

Provider
1 and 1

Davis Vue

Meteohub

Raspberry PI 2 B+

1 and 1